Time;durP1;ratioP1;P1;durP2;ratioP2;P2;SDS_P1;SDS_P2;PMS_P1;PMS_P2;Temp;Humidity;BMP_temperature;BMP_pressure;BME280_temperature;BME280_humidity;BME280_pressure;Samples;Min_cycle;Max_cycle;Signal;HPM_P1;HPM_P2
2023/12/10 00:01:16;;;;;;;12.07;2.95;;;8.00;82.10;;;;;;4974956;28;20077;-80
2023/12/10 00:03:42;;;;;;;14.10;2.90;;;7.90;82.50;;;;;;4975067;28;20081;-79
2023/12/10 00:06:08;;;;;;;14.25;3.25;;;7.90;82.70;;;;;;4974476;28;20027;-82
2023/12/10 00:08:33;;;;;;;15.82;3.10;;;7.80;83.80;;;;;;4979587;28;20027;-81
2023/12/10 00:10:59;;;;;;;15.27;3.50;;;7.70;84.00;;;;;;4980667;28;20121;-83
2023/12/10 00:13:24;;;;;;;12.77;2.97;;;7.70;84.70;;;;;;4979498;28;20435;-84
2023/12/10 00:15:51;;;;;;;19.55;3.88;;;7.60;85.60;;;;;;4979917;28;20027;-83
2023/12/10 00:18:16;;;;;;;16.73;3.45;;;7.60;85.20;;;;;;4979702;28;20035;-77
2023/12/10 00:20:43;;;;;;;15.70;3.55;;;7.50;85.30;;;;;;4975223;28;20097;-78
2023/12/10 00:23:11;;;;;;;15.27;3.17;;;7.50;85.50;;;;;;4974688;28;20475;-82
2023/12/10 00:28:57;;;;;;;25.38;4.38;;;7.60;84.00;;;;;;5144669;23;20067;-82
2023/12/10 00:31:22;;;;;;;24.85;4.22;;;7.60;83.40;;;;;;4956682;29;20079;-82
2023/12/10 00:36:21;;;;;;;27.05;4.68;;;7.60;82.50;;;;;;4934738;29;20043;-82
2023/12/10 00:38:47;;;;;;;28.10;4.35;;;7.60;82.70;;;;;;4936117;29;20106;-82
2023/12/10 00:41:14;;;;;;;18.08;3.50;;;7.60;83.40;;;;;;4919369;29;20024;-83
2023/12/10 00:43:40;;;;;;;27.50;4.38;;;7.60;83.30;;;;;;4918996;29;20477;-82
2023/12/10 00:46:07;;;;;;;25.35;4.88;;;7.60;82.80;;;;;;4918446;29;20126;-83
2023/12/10 00:48:34;;;;;;;25.48;4.45;;;7.60;82.90;;;;;;4936127;29;20038;-82
2023/12/10 00:51:00;;;;;;;23.25;4.88;;;7.70;82.80;;;;;;4919375;29;20024;-82
2023/12/10 00:53:25;;;;;;;23.13;4.40;;;7.60;82.30;;;;;;4918780;29;20118;-82
2023/12/10 00:55:51;;;;;;;28.75;4.60;;;7.60;82.10;;;;;;4919373;29;20028;-83
2023/12/10 00:58:17;;;;;;;30.30;5.20;;;7.70;82.10;;;;;;4919087;29;20496;-82
2023/12/10 01:00:43;;;;;;;23.70;4.55;;;7.60;81.40;;;;;;4918811;29;20445;-82
2023/12/10 01:03:11;;;;;;;31.92;6.10;;;7.60;81.10;;;;;;4920372;29;20461;-83
2023/12/10 01:05:36;;;;;;;31.70;4.95;;;7.60;81.00;;;;;;4918812;29;20119;-81
2023/12/10 01:08:03;;;;;;;26.73;4.60;;;7.60;80.80;;;;;;4934874;29;20106;-81
2023/12/10 01:10:29;;;;;;;34.45;6.03;;;7.60;80.70;;;;;;4918639;29;20053;-82
2023/12/10 01:12:54;;;;;;;30.50;6.25;;;7.60;81.10;;;;;;4918833;29;20536;-82
2023/12/10 01:15:29;;;;;;;28.20;5.05;;;7.60;81.40;;;;;;4919462;29;20477;-83
2023/12/10 01:18:00;;;;;;;33.45;5.45;;;7.50;81.60;;;;;;4918677;29;20035;-82
2023/12/10 01:20:30;;;;;;;27.42;4.85;;;7.50;81.30;;;;;;4919172;29;20495;-83
2023/12/10 01:22:56;;;;;;;29.33;5.35;;;7.60;80.70;;;;;;4919173;29;20047;-82
2023/12/10 01:25:22;;;;;;;24.38;5.30;;;7.60;80.20;;;;;;4919045;29;20078;-82
2023/12/10 01:27:48;;;;;;;22.58;5.03;;;7.50;80.80;;;;;;4936094;29;20056;-82
2023/12/10 01:30:16;;;;;;;35.50;6.07;;;7.50;80.70;;;;;;4919343;29;20460;-81
2023/12/10 01:32:41;;;;;;;22.25;4.15;;;7.40;80.60;;;;;;4935003;29;20035;-83
2023/12/10 01:35:08;;;;;;;28.42;4.65;;;7.50;80.40;;;;;;4915620;29;20052;-78
2023/12/10 01:37:33;;;;;;;26.95;5.20;;;7.50;80.10;;;;;;4914914;29;20477;-79
2023/12/10 01:39:59;;;;;;;19.38;4.70;;;7.50;79.10;;;;;;4916346;29;20035;-77
2023/12/10 01:42:25;;;;;;;21.63;3.90;;;7.50;78.90;;;;;;4915032;29;20066;-77
2023/12/10 01:44:50;;;;;;;19.65;4.43;;;7.50;78.80;;;;;;4915268;29;20485;-79
2023/12/10 01:47:18;;;;;;;21.85;4.30;;;7.50;79.00;;;;;;4915940;29;20032;-77
2023/12/10 01:49:45;;;;;;;20.13;3.75;;;7.50;78.90;;;;;;4931018;29;20032;-78
2023/12/10 01:52:11;;;;;;;22.77;4.90;;;7.40;78.10;;;;;;4914882;29;20025;-77
2023/12/10 01:54:37;;;;;;;23.48;4.07;;;7.40;77.30;;;;;;4931089;29;20039;-77
2023/12/10 01:57:03;;;;;;;22.70;4.32;;;7.40;77.40;;;;;;4933423;29;20043;-79
2023/12/10 01:59:29;;;;;;;25.88;5.20;;;7.40;76.90;;;;;;4919031;29;20084;-77
2023/12/10 02:01:55;;;;;;;30.90;5.45;;;7.40;77.30;;;;;;4918363;29;20024;-77
2023/12/10 02:04:23;;;;;;;21.38;4.70;;;7.40;77.00;;;;;;4918589;29;20118;-78
2023/12/10 02:06:49;;;;;;;25.60;4.93;;;7.40;76.40;;;;;;4918164;29;20461;-77
2023/12/10 02:09:18;;;;;;;26.95;5.20;;;7.40;76.00;;;;;;4918599;29;20426;-77
2023/12/10 02:11:44;;;;;;;30.55;5.20;;;7.40;76.60;;;;;;4918054;29;20031;-76
2023/12/10 02:14:10;;;;;;;27.17;4.65;;;7.40;75.50;;;;;;4918825;29;20029;-77
2023/12/10 02:16:35;;;;;;;20.67;3.95;;;7.40;75.50;;;;;;4933464;29;20043;-76
2023/12/10 02:19:01;;;;;;;20.80;3.83;;;7.40;76.10;;;;;;4933785;29;20024;-75
2023/12/10 02:21:30;;;;;;;19.92;4.70;;;7.20;77.40;;;;;;4918053;29;20032;-76
2023/12/10 02:24:03;;;;;;;17.38;3.70;;;7.10;79.20;;;;;;4919214;29;20084;-76
2023/12/10 02:26:30;;;;;;;26.42;4.97;;;7.00;80.30;;;;;;4919402;29;20030;-76
2023/12/10 02:28:55;;;;;;;31.83;5.85;;;7.00;80.50;;;;;;4917898;29;20028;-76
2023/12/10 02:31:21;;;;;;;19.45;3.15;;;7.00;79.80;;;;;;4918021;29;20028;-77
2023/12/10 02:33:47;;;;;;;17.65;3.92;;;6.90;79.40;;;;;;4917998;29;20142;-76
2023/12/10 02:36:13;;;;;;;20.42;3.03;;;6.90;79.80;;;;;;4936607;29;20052;-76
2023/12/10 02:38:38;;;;;;;23.60;4.57;;;6.80;80.70;;;;;;4920959;29;20066;-76
2023/12/10 02:41:07;;;;;;;22.60;3.60;;;6.80;82.00;;;;;;4936625;29;20055;-76
2023/12/10 02:43:33;;;;;;;18.83;3.75;;;6.70;84.20;;;;;;4920731;29;20126;-76
2023/12/10 02:45:58;;;;;;;27.80;4.60;;;6.70;84.60;;;;;;4919738;29;20425;-76
2023/12/10 02:48:24;;;;;;;23.75;4.75;;;6.60;85.00;;;;;;4920207;29;20035;-77
2023/12/10 02:50:50;;;;;;;25.92;5.70;;;6.70;84.00;;;;;;4923808;29;20028;-77
2023/12/10 02:53:16;;;;;;;27.92;6.45;;;6.60;84.10;;;;;;4921612;29;20131;-77
2023/12/10 02:55:42;;;;;;;24.42;4.95;;;6.60;84.00;;;;;;4921622;29;20028;-76
2023/12/10 02:58:08;;;;;;;30.50;5.55;;;6.60;83.00;;;;;;4937354;29;20035;-77
2023/12/10 03:00:34;;;;;;;22.85;4.82;;;6.50;83.30;;;;;;4920447;29;20479;-77
2023/12/10 03:03:00;;;;;;;22.73;4.10;;;6.50;82.40;;;;;;4937470;29;20055;-78
2023/12/10 03:05:26;;;;;;;28.35;4.97;;;6.60;81.80;;;;;;4920538;29;20462;-78
2023/12/10 03:07:52;;;;;;;22.92;4.28;;;6.60;81.40;;;;;;4920355;29;20019;-77
2023/12/10 03:10:18;;;;;;;22.05;4.38;;;6.60;81.20;;;;;;4920298;29;20079;-77
2023/12/10 03:12:43;;;;;;;22.00;4.13;;;6.60;80.80;;;;;;4920591;29;20019;-76
2023/12/10 03:15:09;;;;;;;27.48;4.28;;;6.60;80.30;;;;;;4937191;29;20063;-77
2023/12/10 03:17:35;;;;;;;28.00;4.22;;;6.60;79.70;;;;;;4920466;29;20031;-76
2023/12/10 03:20:00;;;;;;;23.38;4.22;;;6.60;79.60;;;;;;4920310;29;20469;-76
2023/12/10 03:22:26;;;;;;;21.98;4.20;;;6.70;78.70;;;;;;4935878;29;20059;-76
2023/12/10 03:24:51;;;;;;;17.55;3.97;;;6.70;79.00;;;;;;4937103;29;20030;-76
2023/12/10 03:27:17;;;;;;;20.67;3.47;;;6.60;78.90;;;;;;4937093;29;20038;-76
2023/12/10 03:29:43;;;;;;;19.38;3.78;;;6.70;77.60;;;;;;4919791;29;20079;-76
2023/12/10 03:32:09;;;;;;;21.52;4.45;;;6.80;77.40;;;;;;4937096;29;20028;-77
2023/12/10 03:34:34;;;;;;;20.52;3.53;;;6.80;77.30;;;;;;4919631;29;20449;-76
2023/12/10 03:37:00;;;;;;;24.30;3.60;;;6.80;77.60;;;;;;4936807;29;20098;-76
2023/12/10 03:39:25;;;;;;;29.90;5.22;;;6.70;77.10;;;;;;4920005;29;20063;-75
2023/12/10 03:41:52;;;;;;;19.20;3.78;;;6.70;76.60;;;;;;4935548;29;20039;-78
2023/12/10 03:44:18;;;;;;;22.02;4.07;;;6.70;76.90;;;;;;4919562;29;20027;-77
2023/12/10 03:46:43;;;;;;;17.33;3.70;;;6.70;76.30;;;;;;4936686;29;20477;-77
2023/12/10 03:49:09;;;;;;;18.60;3.33;;;6.70;76.30;;;;;;4919483;29;20087;-77
2023/12/10 03:51:35;;;;;;;18.88;3.67;;;6.70;76.50;;;;;;4919991;29;20477;-77
2023/12/10 03:54:01;;;;;;;23.73;4.07;;;6.70;75.80;;;;;;4919688;29;20115;-77
2023/12/10 03:56:26;;;;;;;19.33;3.65;;;6.70;76.10;;;;;;4935248;29;20484;-77
2023/12/10 03:58:52;;;;;;;25.17;4.40;;;6.70;75.80;;;;;;4935763;29;20089;-78
2023/12/10 04:01:18;;;;;;;16.45;3.28;;;6.70;75.50;;;;;;4919723;29;20032;-79
2023/12/10 04:03:58;;;;;;;21.70;3.67;;;6.80;75.40;;;;;;4936423;29;20390;-79
2023/12/10 04:06:24;;;;;;;22.70;3.90;;;6.80;75.20;;;;;;4919160;29;20028;-78
2023/12/10 04:08:51;;;;;;;18.40;3.65;;;6.80;75.40;;;;;;4919551;29;20487;-79
2023/12/10 04:11:24;;;;;;;21.17;4.13;;;6.90;75.70;;;;;;4929725;29;20376;-78
2023/12/10 04:13:49;;;;;;;21.33;3.55;;;6.80;75.60;;;;;;4938150;29;20443;-78
2023/12/10 04:16:29;;;;;;;21.23;4.63;;;6.90;75.40;;;;;;4938275;29;20059;-75
2023/12/10 04:18:55;;;;;;;18.88;3.88;;;6.90;74.50;;;;;;4937779;29;20041;-77
2023/12/10 04:21:23;;;;;;;18.33;3.75;;;6.90;74.90;;;;;;4937906;29;20027;-77
2023/12/10 04:23:49;;;;;;;21.13;3.67;;;6.80;74.10;;;;;;4937888;29;20027;-77
2023/12/10 04:26:16;;;;;;;20.58;4.18;;;6.80;74.00;;;;;;4937782;29;20032;-76
2023/12/10 04:28:43;;;;;;;17.10;3.55;;;6.80;73.50;;;;;;4955082;29;20054;-77
2023/12/10 04:31:09;;;;;;;19.50;3.58;;;6.90;73.00;;;;;;4938179;29;20363;-77
2023/12/10 04:33:35;;;;;;;19.23;4.03;;;6.90;72.80;;;;;;4955015;29;20032;-78
2023/12/10 04:36:00;;;;;;;21.77;3.88;;;6.90;71.30;;;;;;4937931;29;20404;-78
2023/12/10 04:38:28;;;;;;;26.42;4.47;;;6.90;71.30;;;;;;4938117;29;20540;-78
2023/12/10 04:40:54;;;;;;;20.13;4.07;;;7.00;72.00;;;;;;4939639;29;20027;-77
2023/12/10 04:43:20;;;;;;;22.65;4.07;;;6.90;72.10;;;;;;4923451;29;20050;-78
2023/12/10 04:45:46;;;;;;;18.45;3.67;;;6.90;70.60;;;;;;4938156;29;20031;-77
2023/12/10 04:48:14;;;;;;;24.55;3.83;;;6.90;70.90;;;;;;4938270;29;20027;-77
2023/12/10 04:50:40;;;;;;;21.40;4.18;;;6.90;70.80;;;;;;4954510;29;20051;-78
2023/12/10 04:53:09;;;;;;;20.27;3.67;;;6.90;70.70;;;;;;4937904;29;20058;-77
2023/12/10 04:55:34;;;;;;;21.48;3.70;;;6.90;70.70;;;;;;4937576;29;20082;-78
2023/12/10 04:58:00;;;;;;;17.95;3.47;;;6.90;70.70;;;;;;4953439;29;20436;-76
2023/12/10 05:00:27;;;;;;;21.38;4.05;;;6.90;71.00;;;;;;4921650;29;20539;-77
2023/12/10 05:02:53;;;;;;;23.83;3.80;;;6.90;70.10;;;;;;4953494;29;20035;-77
2023/12/10 05:05:19;;;;;;;15.73;3.38;;;6.90;70.50;;;;;;4937416;29;20053;-78
2023/12/10 05:07:45;;;;;;;15.90;3.75;;;6.80;70.80;;;;;;4937326;29;20039;-77
2023/12/10 05:10:11;;;;;;;19.75;3.60;;;6.80;71.40;;;;;;4937677;29;20447;-77
2023/12/10 05:12:37;;;;;;;18.15;3.92;;;6.80;70.60;;;;;;4937196;29;20031;-77
2023/12/10 05:15:02;;;;;;;21.85;3.65;;;6.80;70.40;;;;;;4921455;29;20142;-77
2023/12/10 05:17:28;;;;;;;21.90;3.97;;;6.80;70.20;;;;;;4954007;29;20412;-77
2023/12/10 05:19:53;;;;;;;22.65;4.20;;;6.80;70.10;;;;;;4937237;29;20461;-77
2023/12/10 05:22:20;;;;;;;19.30;4.65;;;6.80;70.00;;;;;;4953410;29;20031;-77
2023/12/10 05:24:46;;;;;;;21.48;3.42;;;6.70;70.30;;;;;;4954561;29;20062;-77
2023/12/10 05:27:13;;;;;;;18.80;3.97;;;6.70;70.10;;;;;;4937630;29;20054;-77
2023/12/10 05:29:38;;;;;;;20.83;3.88;;;6.70;70.20;;;;;;4937616;28;20028;-77
2023/12/10 05:32:04;;;;;;;15.98;2.53;;;6.70;70.10;;;;;;4958247;29;20575;-77
2023/12/10 05:34:30;;;;;;;15.32;3.65;;;6.70;69.90;;;;;;4940744;29;20042;-76
2023/12/10 05:36:55;;;;;;;22.30;4.40;;;6.70;70.70;;;;;;4941325;29;20674;-78
2023/12/10 05:39:21;;;;;;;22.83;3.75;;;6.70;69.40;;;;;;4941110;29;20035;-78
2023/12/10 05:41:46;;;;;;;20.60;3.92;;;6.80;69.10;;;;;;4941137;29;20024;-77
2023/12/10 05:44:12;;;;;;;19.17;3.95;;;6.80;69.50;;;;;;4958400;29;20027;-77
2023/12/10 05:46:37;;;;;;;20.40;3.75;;;6.80;69.00;;;;;;4958206;29;20062;-78
2023/12/10 05:49:03;;;;;;;20.45;4.53;;;6.80;68.80;;;;;;4940828;29;20038;-78
2023/12/10 05:51:29;;;;;;;14.43;2.88;;;6.80;68.90;;;;;;4958037;29;20031;-77
2023/12/10 05:53:55;;;;;;;15.38;3.38;;;6.90;68.70;;;;;;4940932;29;20495;-77
2023/12/10 05:56:21;;;;;;;21.23;4.20;;;6.80;68.90;;;;;;4956833;29;20042;-79
2023/12/10 05:58:48;;;;;;;16.88;3.47;;;6.80;68.80;;;;;;4958515;29;20404;-81
2023/12/10 06:01:14;;;;;;;20.70;3.63;;;6.80;69.00;;;;;;4951252;29;20055;-80
2023/12/10 06:03:39;;;;;;;14.75;3.63;;;6.80;68.80;;;;;;4969032;29;20027;-78
2023/12/10 06:06:05;;;;;;;18.88;3.72;;;6.80;68.70;;;;;;4952590;29;20058;-76
2023/12/10 06:08:30;;;;;;;14.38;3.10;;;6.80;68.90;;;;;;4942612;29;20031;-78
2023/12/10 06:10:56;;;;;;;21.15;3.30;;;6.80;68.20;;;;;;4941688;29;20023;-81
2023/12/10 06:13:22;;;;;;;12.45;2.60;;;6.90;67.70;;;;;;4957944;29;20031;-78
2023/12/10 06:15:47;;;;;;;23.52;3.70;;;6.90;67.30;;;;;;4957023;29;20105;-77
2023/12/10 06:18:13;;;;;;;19.92;4.03;;;6.90;67.20;;;;;;4939966;29;20405;-77
2023/12/10 06:20:41;;;;;;;17.17;3.05;;;6.80;67.50;;;;;;4957341;29;20090;-77
2023/12/10 06:23:07;;;;;;;17.55;3.28;;;6.90;67.10;;;;;;4940306;29;20027;-76
2023/12/10 06:25:32;;;;;;;17.95;3.22;;;6.80;67.00;;;;;;4940540;29;20031;-78
2023/12/10 06:27:58;;;;;;;16.75;3.08;;;6.90;66.90;;;;;;4957547;29;20035;-78
2023/12/10 06:30:23;;;;;;;20.52;3.70;;;6.80;67.90;;;;;;4956971;29;20366;-77
2023/12/10 06:32:50;;;;;;;15.02;3.08;;;6.90;66.70;;;;;;4939780;29;20023;-75
2023/12/10 06:35:15;;;;;;;21.55;3.90;;;6.90;66.90;;;;;;4957319;29;20126;-76
2023/12/10 06:37:41;;;;;;;18.13;3.92;;;6.90;66.50;;;;;;4940416;29;20496;-76
2023/12/10 06:40:08;;;;;;;17.60;3.33;;;6.90;66.70;;;;;;4940017;29;20473;-75
2023/12/10 06:42:34;;;;;;;17.52;3.28;;;6.90;66.90;;;;;;4956715;28;20477;-76
2023/12/10 06:45:00;;;;;;;19.55;3.47;;;6.90;66.50;;;;;;4957271;29;20106;-76
2023/12/10 06:47:26;;;;;;;21.10;3.42;;;6.90;66.40;;;;;;4957382;29;20086;-76
2023/12/10 06:49:51;;;;;;;19.10;3.58;;;6.90;66.40;;;;;;4957199;29;20381;-76
2023/12/10 06:52:17;;;;;;;17.23;3.58;;;6.90;66.70;;;;;;4924186;29;20035;-76
2023/12/10 06:54:43;;;;;;;17.92;3.10;;;6.90;66.70;;;;;;4957085;29;20059;-76
2023/12/10 06:57:09;;;;;;;21.92;3.88;;;7.00;66.20;;;;;;4939495;29;20037;-76
2023/12/10 06:59:34;;;;;;;19.50;4.05;;;7.00;66.00;;;;;;4939714;29;20031;-76
2023/12/10 07:02:00;;;;;;;21.00;3.78;;;7.00;66.80;;;;;;4955437;29;20114;-76
2023/12/10 07:04:25;;;;;;;19.35;2.55;;;7.00;66.10;;;;;;4939068;29;20123;-76
2023/12/10 07:06:51;;;;;;;16.92;3.25;;;7.00;66.10;;;;;;4955620;29;20030;-78
2023/12/10 07:09:17;;;;;;;15.73;3.65;;;7.00;66.90;;;;;;4939556;29;20034;-78
2023/12/10 07:11:42;;;;;;;17.08;4.03;;;7.00;66.80;;;;;;4956392;29;20040;-77
2023/12/10 07:14:08;;;;;;;18.10;3.33;;;6.90;67.10;;;;;;4939361;29;20381;-79
2023/12/10 07:16:33;;;;;;;19.30;3.78;;;6.90;67.40;;;;;;4939566;29;20035;-77
2023/12/10 07:18:59;;;;;;;19.90;3.60;;;6.90;67.90;;;;;;4939393;29;20035;-77
2023/12/10 07:21:25;;;;;;;26.90;4.05;;;6.90;68.20;;;;;;4939302;29;20019;-78
2023/12/10 07:23:50;;;;;;;19.50;3.20;;;6.90;68.50;;;;;;4956369;29;20031;-78
2023/12/10 07:26:24;;;;;;;22.65;4.25;;;6.90;68.00;;;;;;4955340;29;20031;-76
2023/12/10 07:28:51;;;;;;;20.20;3.50;;;6.90;68.00;;;;;;4956342;29;20062;-80
2023/12/10 07:31:17;;;;;;;18.25;3.58;;;7.00;67.80;;;;;;4939050;29;20038;-79
2023/12/10 07:33:43;;;;;;;23.77;4.45;;;7.00;67.40;;;;;;4939138;29;20023;-78
2023/12/10 07:36:10;;;;;;;19.85;3.10;;;6.90;67.00;;;;;;4956057;29;20420;-78
2023/12/10 07:38:35;;;;;;;23.77;4.10;;;7.00;67.50;;;;;;4938798;29;20043;-78
2023/12/10 07:41:01;;;;;;;11.68;3.15;;;7.00;67.20;;;;;;4939202;29;20391;-77
2023/12/10 07:43:26;;;;;;;16.58;3.38;;;7.00;67.30;;;;;;4939082;29;20128;-77
2023/12/10 07:45:52;;;;;;;19.27;4.05;;;7.00;66.70;;;;;;4956122;29;20440;-76
2023/12/10 07:48:19;;;;;;;19.73;3.72;;;7.00;67.50;;;;;;4938904;29;20031;-76
2023/12/10 07:50:45;;;;;;;21.75;3.63;;;7.10;66.80;;;;;;4956070;29;20081;-76
2023/12/10 07:53:11;;;;;;;19.95;3.38;;;7.10;67.20;;;;;;4937807;29;20126;-77
2023/12/10 07:55:36;;;;;;;21.33;3.47;;;7.00;67.30;;;;;;4955706;29;20027;-77
2023/12/10 07:58:02;;;;;;;16.65;3.13;;;7.00;67.10;;;;;;4938602;29;20093;-78
2023/12/10 08:00:27;;;;;;;16.55;3.75;;;7.10;67.10;;;;;;4938533;29;20074;-78
2023/12/10 08:02:53;;;;;;;15.25;4.10;;;7.10;67.40;;;;;;4938190;29;20035;-76
2023/12/10 08:05:19;;;;;;;20.15;4.25;;;7.10;67.40;;;;;;4938794;29;20028;-76
2023/12/10 08:07:44;;;;;;;17.80;4.07;;;7.10;66.50;;;;;;4954457;29;20544;-77
2023/12/10 08:10:10;;;;;;;15.93;3.17;;;7.10;67.30;;;;;;4955625;29;20115;-78
2023/12/10 08:12:35;;;;;;;19.83;4.00;;;7.10;67.30;;;;;;4938349;29;20118;-76
2023/12/10 08:15:01;;;;;;;23.58;4.25;;;7.10;67.20;;;;;;4955575;29;20027;-76
2023/12/10 08:17:27;;;;;;;20.27;3.75;;;7.20;66.80;;;;;;4937677;29;20031;-77
2023/12/10 08:19:52;;;;;;;19.15;3.97;;;7.40;66.30;;;;;;4954997;29;20396;-77
2023/12/10 08:22:18;;;;;;;15.52;3.60;;;7.30;67.10;;;;;;4937539;29;20496;-78
2023/12/10 08:24:43;;;;;;;19.52;3.95;;;7.40;66.20;;;;;;4938297;29;20540;-78
2023/12/10 08:27:09;;;;;;;21.40;3.88;;;7.30;65.90;;;;;;4937861;29;20042;-76
2023/12/10 08:29:35;;;;;;;14.30;3.40;;;7.50;65.20;;;;;;4955322;29;20082;-79
2023/12/10 08:32:01;;;;;;;17.00;3.28;;;7.50;65.00;;;;;;4938059;29;20077;-79
2023/12/10 08:34:26;;;;;;;17.48;3.83;;;7.50;65.10;;;;;;4937889;29;20105;-78
2023/12/10 08:36:52;;;;;;;19.45;4.03;;;7.60;65.50;;;;;;4938211;29;20034;-78
2023/12/10 08:39:18;;;;;;;18.98;3.50;;;7.70;64.70;;;;;;4938108;29;20027;-78
2023/12/10 08:41:43;;;;;;;15.52;4.03;;;7.70;65.30;;;;;;4955171;29;20119;-78
2023/12/10 08:44:09;;;;;;;16.70;4.28;;;7.90;64.40;;;;;;4938124;29;20110;-78
2023/12/10 08:46:34;;;;;;;18.85;3.95;;;8.00;63.50;;;;;;4955095;29;20029;-77
2023/12/10 08:49:00;;;;;;;22.73;4.43;;;8.10;64.10;;;;;;4937350;29;20123;-77
2023/12/10 08:51:26;;;;;;;16.48;3.70;;;8.30;63.30;;;;;;4937228;29;20055;-75
2023/12/10 08:53:51;;;;;;;10.98;3.45;;;8.80;64.20;;;;;;4937278;29;20512;-77
2023/12/10 08:56:17;;;;;;;16.17;4.13;;;9.00;65.20;;;;;;4954910;29;20031;-77
2023/12/10 08:58:42;;;;;;;15.88;4.07;;;9.40;64.00;;;;;;4954876;29;20043;-77
2023/12/10 09:01:08;;;;;;;14.85;3.33;;;9.70;64.00;;;;;;4955043;29;20110;-76
2023/12/10 09:03:33;;;;;;;10.55;3.50;;;10.00;62.30;;;;;;4937888;29;20480;-77
2023/12/10 09:06:00;;;;;;;13.55;3.53;;;10.40;60.10;;;;;;4941466;29;20496;-77
2023/12/10 09:08:26;;;;;;;12.82;4.03;;;10.50;59.00;;;;;;4942093;29;20035;-79
2023/12/10 09:10:53;;;;;;;15.95;3.58;;;10.40;58.60;;;;;;4942224;29;20090;-78
2023/12/10 09:13:18;;;;;;;15.60;4.40;;;10.40;58.60;;;;;;4941746;29;20031;-77
2023/12/10 09:15:44;;;;;;;11.73;3.78;;;10.50;58.30;;;;;;4958709;29;20572;-77
2023/12/10 09:18:10;;;;;;;16.70;3.97;;;10.50;58.50;;;;;;4957561;29;20043;-78
2023/12/10 09:20:36;;;;;;;15.20;3.22;;;10.60;58.40;;;;;;4958532;29;20073;-78
2023/12/10 09:23:01;;;;;;;15.05;4.28;;;10.80;56.40;;;;;;4941118;29;20034;-77
2023/12/10 09:30:38;;;;;;;14.95;3.17;;;10.10;57.60;;;;;;5441321;23;20051;-79
2023/12/10 09:33:05;;;;;;;15.82;4.03;;;10.10;58.00;;;;;;4963348;29;20110;-78
2023/12/10 09:35:31;;;;;;;13.70;3.53;;;9.80;58.80;;;;;;4941684;29;20024;-78
2023/12/10 09:37:56;;;;;;;14.20;4.40;;;9.60;60.10;;;;;;4957860;29;20039;-79
2023/12/10 09:40:22;;;;;;;15.20;3.65;;;9.70;60.00;;;;;;4941442;29;20114;-78
2023/12/10 09:42:47;;;;;;;18.25;3.80;;;9.70;59.70;;;;;;4941090;29;20027;-77
2023/12/10 09:45:13;;;;;;;14.45;3.17;;;9.80;58.80;;;;;;4940167;29;20031;-79
2023/12/10 09:47:43;;;;;;;11.10;3.10;;;9.90;57.80;;;;;;4941006;29;20103;-77
2023/12/10 09:50:09;;;;;;;14.50;3.25;;;9.60;58.30;;;;;;4958273;29;20058;-77
2023/12/10 09:52:35;;;;;;;18.38;3.92;;;9.70;58.70;;;;;;4940381;29;20476;-77
2023/12/10 09:55:00;;;;;;;12.60;2.90;;;9.40;59.50;;;;;;4941240;29;20027;-77
2023/12/10 09:57:29;;;;;;;11.73;2.83;;;9.20;59.70;;;;;;4940387;29;20105;-77
2023/12/10 10:02:32;;;;;;;18.45;3.90;;;8.70;62.80;;;;;;5103098;23;20500;-78
2023/12/10 10:04:57;;;;;;;13.15;2.90;;;8.60;63.80;;;;;;4939398;29;20503;-77
2023/12/10 10:07:23;;;;;;;12.50;3.10;;;8.40;63.50;;;;;;4957785;29;20039;-78
2023/12/10 10:09:48;;;;;;;17.65;3.30;;;8.30;65.00;;;;;;4957706;29;20020;-77
2023/12/10 10:12:14;;;;;;;13.07;3.67;;;8.20;64.50;;;;;;4956955;29;20035;-77
2023/12/10 10:14:57;;;;;;;18.95;3.17;;;8.10;64.70;;;;;;4957239;29;20030;-77
2023/12/10 10:17:30;;;;;;;14.68;3.05;;;8.10;64.70;;;;;;4956311;28;20050;-78
2023/12/10 10:19:56;;;;;;;16.30;3.53;;;8.00;66.60;;;;;;4940309;29;20027;-77
2023/12/10 10:22:26;;;;;;;16.13;2.78;;;7.90;67.90;;;;;;4957468;29;20469;-77
2023/12/10 10:24:52;;;;;;;15.43;3.40;;;7.80;68.40;;;;;;4957581;28;20078;-77
2023/12/10 10:27:18;;;;;;;17.00;3.20;;;7.90;69.10;;;;;;5037002;23;20067;-77
2023/12/10 10:29:44;;;;;;;13.13;2.90;;;7.90;68.70;;;;;;4948044;23;20456;-77
2023/12/10 10:32:16;;;;;;;17.13;3.85;;;7.80;68.90;;;;;;4940033;29;20023;-77
2023/12/10 10:34:45;;;;;;;17.13;4.15;;;7.90;69.30;;;;;;4957293;29;20109;-76
2023/12/10 10:37:11;;;;;;;14.50;3.45;;;7.90;68.60;;;;;;4939826;29;20059;-78
2023/12/10 10:48:37;;;;;;;15.88;3.17;;;8.10;66.90;;;;;;4956970;28;19961;-75
2023/12/10 10:54:53;;;;;;;;;;;;;;;;;;;;;
2023/12/10 11:23:45;;;;;;;17.63;2.97;;;8.10;66.50;;;;;;3095196;23;20139;-76
2023/12/10 11:26:11;;;;;;;14.95;3.22;;;8.00;66.50;;;;;;4939798;29;20361;-76
2023/12/10 11:28:37;;;;;;;14.65;2.58;;;8.00;66.00;;;;;;4938768;29;20034;-76
2023/12/10 11:31:03;;;;;;;13.43;3.03;;;8.00;65.80;;;;;;4956336;29;20035;-76
2023/12/10 11:33:28;;;;;;;9.00;2.20;;;8.10;65.30;;;;;;4938494;29;20023;-76
2023/12/10 11:36:00;;;;;;;11.80;2.88;;;8.10;64.90;;;;;;4939228;29;20037;-77
2023/12/10 11:38:26;;;;;;;9.77;2.85;;;8.10;65.20;;;;;;4935632;29;20051;-77
2023/12/10 11:40:52;;;;;;;14.63;2.55;;;8.10;65.60;;;;;;4938791;29;20363;-76
2023/12/10 11:43:19;;;;;;;11.05;2.45;;;8.10;65.50;;;;;;4955446;29;20531;-76
2023/12/10 11:45:45;;;;;;;8.48;1.95;;;8.20;65.10;;;;;;4920858;29;20030;-77
2023/12/10 11:48:10;;;;;;;11.73;2.63;;;8.20;65.20;;;;;;4939852;29;20031;-82
2023/12/10 11:50:48;;;;;;;16.90;3.15;;;8.20;65.10;;;;;;4942560;29;20033;-85
2023/12/10 11:56:44;;;;;;;10.95;2.65;;;8.30;66.00;;;;;;4956665;29;20106;-77
2023/12/10 12:00:04;;;;;;;16.08;4.97;;;8.30;66.20;;;;;;4945116;29;20027;-77
2023/12/10 12:05:39;;;;;;;12.27;2.40;;;8.20;67.70;;;;;;4971143;23;20060;-89
2023/12/10 12:08:19;;;;;;;9.15;2.53;;;8.20;68.00;;;;;;4922543;29;20032;-90
2023/12/10 12:11:04;;;;;;;10.48;2.33;;;8.20;68.30;;;;;;4921745;29;20063;-75
2023/12/10 12:13:33;;;;;;;11.18;2.10;;;8.20;68.80;;;;;;4919774;29;20079;-78
2023/12/10 12:15:58;;;;;;;13.88;2.60;;;8.10;69.80;;;;;;4904436;29;20070;-78
2023/12/10 12:18:40;;;;;;;11.05;2.40;;;8.10;70.40;;;;;;4920664;29;20067;-79
2023/12/10 12:21:05;;;;;;;13.25;3.03;;;8.00;71.10;;;;;;4920765;29;20390;-75
2023/12/10 12:23:31;;;;;;;12.30;2.50;;;7.90;70.80;;;;;;4919564;29;20035;-80
2023/12/10 12:25:57;;;;;;;15.52;2.60;;;7.90;70.60;;;;;;4903981;29;20038;-87
2023/12/10 12:28:49;;;;;;;15.27;2.80;;;7.90;70.70;;;;;;4921708;29;20075;-82
2023/12/10 12:31:20;;;;;;;14.05;2.80;;;7.90;70.40;;;;;;4937580;29;20098;-83
2023/12/10 12:33:56;;;;;;;15.85;3.38;;;7.90;70.80;;;;;;4918155;29;20036;-85
2023/12/10 12:36:21;;;;;;;13.18;2.90;;;7.90;70.20;;;;;;4920781;29;20028;-76
2023/12/10 12:38:47;;;;;;;11.57;2.28;;;7.90;70.00;;;;;;4903598;29;20453;-77
2023/12/10 12:41:13;;;;;;;13.00;2.78;;;7.90;70.20;;;;;;4919292;29;20023;-76
2023/12/10 12:43:38;;;;;;;14.15;3.63;;;7.90;70.50;;;;;;4920203;29;20030;-86
2023/12/10 12:46:20;;;;;;;18.05;3.47;;;7.90;70.90;;;;;;4920588;29;20110;-83
2023/12/10 12:48:46;;;;;;;14.38;2.60;;;7.90;71.30;;;;;;4937710;23;20491;-79
2023/12/10 12:51:12;;;;;;;15.38;3.53;;;7.90;71.70;;;;;;4940356;29;20058;-76
2023/12/10 12:53:37;;;;;;;12.00;3.42;;;7.90;71.70;;;;;;4955376;28;20055;-75
2023/12/10 12:56:03;;;;;;;12.77;3.45;;;7.90;71.60;;;;;;4955349;28;20024;-77
2023/12/10 12:58:30;;;;;;;15.07;3.25;;;7.90;71.90;;;;;;4938519;29;20035;-80
2023/12/10 13:00:55;;;;;;;18.13;3.15;;;7.80;71.60;;;;;;4938135;29;20024;-82
2023/12/10 13:03:21;;;;;;;14.23;3.30;;;7.90;72.00;;;;;;4955896;29;20039;-77
2023/12/10 13:05:46;;;;;;;18.17;3.80;;;7.80;71.50;;;;;;4954991;28;20024;-78
2023/12/10 13:08:13;;;;;;;10.75;2.85;;;7.80;71.90;;;;;;4955275;28;20477;-80
2023/12/10 13:10:38;;;;;;;15.40;2.90;;;7.80;71.20;;;;;;4955076;28;20023;-80
2023/12/10 13:13:04;;;;;;;19.70;3.25;;;7.80;71.60;;;;;;4954948;28;20054;-80
2023/12/10 13:15:30;;;;;;;12.02;3.10;;;7.80;71.70;;;;;;4955174;29;20023;-80
2023/12/10 13:17:56;;;;;;;18.05;3.30;;;7.80;71.30;;;;;;4954864;28;20032;-77
2023/12/10 13:20:22;;;;;;;14.40;3.20;;;7.90;71.40;;;;;;4937793;29;20146;-78
2023/12/10 13:22:48;;;;;;;15.98;3.58;;;7.90;70.80;;;;;;4954886;28;20029;-81
2023/12/10 13:25:14;;;;;;;15.35;3.92;;;7.90;70.90;;;;;;4954735;29;20436;-76
2023/12/10 13:27:40;;;;;;;13.75;3.22;;;8.00;70.10;;;;;;4954952;28;20035;-77
2023/12/10 13:30:06;;;;;;;21.90;4.15;;;8.10;69.70;;;;;;4937708;29;20023;-75
2023/12/10 13:32:31;;;;;;;20.63;4.07;;;8.20;69.80;;;;;;4954755;28;20421;-76
2023/12/10 13:35:00;;;;;;;16.02;3.47;;;8.20;69.30;;;;;;4955165;28;20053;-77
2023/12/10 13:37:25;;;;;;;15.65;3.17;;;8.40;68.80;;;;;;4954721;28;20027;-76
2023/12/10 13:39:51;;;;;;;15.95;3.60;;;8.50;67.70;;;;;;4937725;29;20034;-76
2023/12/10 13:42:19;;;;;;;14.80;3.63;;;8.50;67.80;;;;;;4954924;29;20015;-77
2023/12/10 13:44:45;;;;;;;12.90;3.75;;;8.60;67.10;;;;;;4937764;29;20400;-76